Time;durP1;ratioP1;P1;durP2;ratioP2;P2;SDS_P1;SDS_P2;PMS_P1;PMS_P2;Temp;Humidity;BMP_temperature;BMP_pressure;BME280_temperature;BME280_humidity;BME280_pressure;Samples;Min_cycle;Max_cycle;Signal;HPM_P1;HPM_P2
2022/03/03 00:02:02;;;;;;;;;;;;;;;;;;5093066;28;822;-73
2022/03/03 00:04:29;;;;;;;;;;;;;;;;;;5091957;28;1066;-73
2022/03/03 00:06:55;;;;;;;;;;;;;;;;;;5091351;28;896;-73
2022/03/03 00:09:21;;;;;;;;;;;;;;;;;;5091277;28;1975;-72
2022/03/03 00:11:47;;;;;;;;;;;;;;;;;;5091324;28;1161;-73
2022/03/03 00:14:15;;;;;;;;;;;;;;;;;;5083731;28;1547;-73
2022/03/03 00:16:41;;;;;;;;;;;;;;;;;;5111814;28;912;-73
2022/03/03 00:19:07;;;;;;;;;;;;;;;;;;5111798;28;869;-73
2022/03/03 00:21:34;;;;;;;;;;;;;;;;;;5111349;28;1319;-72
2022/03/03 00:24:00;;;;;;;;;;;;;;;;;;5111401;28;940;-72
2022/03/03 00:26:26;;;;;;;;;;;;;;;;;;5111758;28;1023;-73
2022/03/03 00:28:52;;;;;;;;;;;;;;;;;;5092532;28;772;-73
2022/03/03 00:31:20;;;;;;;;;;;;;;;;;;5091270;28;1996;-73
2022/03/03 00:33:46;;;;;;;;;;;;;;;;;;5091205;28;904;-72
2022/03/03 00:36:12;;;;;;;;;;;;;;;;;;5072904;28;1270;-73
2022/03/03 00:38:39;;;;;;;;;;;;;;;;;;5091782;28;906;-72
2022/03/03 00:41:05;;;;;;;;;;;;;;;;;;5090077;28;1332;-73
2022/03/03 00:43:31;;;;;;;;;;;;;;;;;;5090955;28;958;-73
2022/03/03 00:45:57;;;;;;;;;;;;;;;;;;5091078;28;1307;-73
2022/03/03 00:48:25;;;;;;;;;;;;;;;;;;5091292;28;1066;-73
2022/03/03 00:50:51;;;;;;;;;;;;;;;;;;5090476;28;1922;-73
2022/03/03 00:53:17;;;;;;;;;;;;;;;;;;5091129;28;1133;-73
2022/03/03 00:55:43;;;;;;;;;;;;;;;;;;5090925;28;1126;-72
2022/03/03 00:58:10;;;;;;;;;;;;;;;;;;5090961;28;1086;-72
2022/03/03 01:00:36;;;;;;;;;;;;;;;;;;5090457;28;1431;-72
2022/03/03 01:03:03;;;;;;;;;;;;;;;;;;5072514;28;1285;-72
2022/03/03 01:05:30;;;;;;;;;;;;;;;;;;5091103;28;992;-72
2022/03/03 01:07:56;;;;;;;;;;;;;;;;;;5091023;28;705;-72
2022/03/03 01:10:22;;;;;;;;;;;;;;;;;;5090426;28;1987;-72
2022/03/03 01:12:49;;;;;;;;;;;;;;;;;;5090928;28;844;-72
2022/03/03 01:15:15;;;;;;;;;;;;;;;;;;5090690;28;1008;-72
2022/03/03 01:17:41;;;;;;;;;;;;;;;;;;5072407;28;1255;-72
2022/03/03 01:20:08;;;;;;;;;;;;;;;;;;5090109;28;1332;-73
2022/03/03 01:22:36;;;;;;;;;;;;;;;;;;5090615;28;995;-72
2022/03/03 01:25:02;;;;;;;;;;;;;;;;;;5090546;28;846;-72
2022/03/03 01:27:28;;;;;;;;;;;;;;;;;;5090688;28;845;-73
2022/03/03 01:29:54;;;;;;;;;;;;;;;;;;5090003;28;1971;-73
2022/03/03 01:32:20;;;;;;;;;;;;;;;;;;5090510;28;1086;-72
2022/03/03 01:34:47;;;;;;;;;;;;;;;;;;5090200;28;818;-72
2022/03/03 01:37:13;;;;;;;;;;;;;;;;;;5072240;28;1119;-72
2022/03/03 01:39:40;;;;;;;;;;;;;;;;;;5092384;28;1333;-69
2022/03/03 01:42:07;;;;;;;;;;;;;;;;;;5094500;28;778;-72
2022/03/03 01:44:33;;;;;;;;;;;;;;;;;;5094467;28;857;-72
2022/03/03 01:47:00;;;;;;;;;;;;;;;;;;5094565;28;1090;-72
2022/03/03 01:49:26;;;;;;;;;;;;;;;;;;5094677;28;1415;-72
2022/03/03 01:51:53;;;;;;;;;;;;;;;;;;5094310;28;1914;-73
2022/03/03 01:54:19;;;;;;;;;;;;;;;;;;5094218;28;1090;-72
2022/03/03 01:56:47;;;;;;;;;;;;;;;;;;5093961;28;1075;-72
2022/03/03 01:59:13;;;;;;;;;;;;;;;;;;5094178;28;1143;-72
2022/03/03 02:01:41;;;;;;;;;;;;;;;;;;5093885;28;1343;-73
2022/03/03 02:04:07;;;;;;;;;;;;;;;;;;5093938;28;987;-73
2022/03/03 02:06:34;;;;;;;;;;;;;;;;;;5093993;28;1098;-72
2022/03/03 02:09:00;;;;;;;;;;;;;;;;;;5093717;28;798;-73
2022/03/03 02:11:26;;;;;;;;;;;;;;;;;;5093581;28;1976;-73
2022/03/03 02:13:54;;;;;;;;;;;;;;;;;;5093678;28;1071;-72
2022/03/03 02:16:21;;;;;;;;;;;;;;;;;;5079982;28;1523;-73
2022/03/03 02:18:48;;;;;;;;;;;;;;;;;;5114184;28;964;-72
2022/03/03 02:21:16;;;;;;;;;;;;;;;;;;5113818;28;1303;-72
2022/03/03 02:23:42;;;;;;;;;;;;;;;;;;5114252;28;1145;-72
2022/03/03 02:26:08;;;;;;;;;;;;;;;;;;5113974;28;1126;-72
2022/03/03 02:28:35;;;;;;;;;;;;;;;;;;5113994;28;710;-72
2022/03/03 02:31:01;;;;;;;;;;;;;;;;;;5095901;28;1977;-72
2022/03/03 02:33:27;;;;;;;;;;;;;;;;;;5075376;28;1127;-73
2022/03/03 02:35:53;;;;;;;;;;;;;;;;;;5093460;28;1063;-71
2022/03/03 02:38:21;;;;;;;;;;;;;;;;;;5093423;28;880;-73
2022/03/03 02:40:47;;;;;;;;;;;;;;;;;;5092578;28;1414;-73
2022/03/03 02:43:13;;;;;;;;;;;;;;;;;;5093394;28;888;-72
2022/03/03 02:45:39;;;;;;;;;;;;;;;;;;5093366;28;1095;-72
2022/03/03 02:48:05;;;;;;;;;;;;;;;;;;5092977;28;739;-73
2022/03/03 02:50:32;;;;;;;;;;;;;;;;;;5091931;28;1977;-73
2022/03/03 02:53:01;;;;;;;;;;;;;;;;;;5093029;28;821;-72
2022/03/03 02:55:29;;;;;;;;;;;;;;;;;;5093136;28;967;-72
2022/03/03 02:57:56;;;;;;;;;;;;;;;;;;5093060;28;932;-72
2022/03/03 03:00:22;;;;;;;;;;;;;;;;;;5092776;28;1392;-72
2022/03/03 03:02:48;;;;;;;;;;;;;;;;;;5092940;28;845;-73
2022/03/03 03:05:14;;;;;;;;;;;;;;;;;;5093364;28;793;-72
2022/03/03 03:07:41;;;;;;;;;;;;;;;;;;5092794;28;1079;-72
2022/03/03 03:10:07;;;;;;;;;;;;;;;;;;5094504;28;1367;-72
2022/03/03 03:12:35;;;;;;;;;;;;;;;;;;5092578;28;1921;-72
2022/03/03 03:15:01;;;;;;;;;;;;;;;;;;5092583;28;928;-72
2022/03/03 03:17:27;;;;;;;;;;;;;;;;;;5092829;28;793;-72
2022/03/03 03:19:53;;;;;;;;;;;;;;;;;;5092125;28;1407;-73
2022/03/03 03:22:20;;;;;;;;;;;;;;;;;;5074661;28;1123;-74
2022/03/03 03:24:46;;;;;;;;;;;;;;;;;;5074693;28;1123;-73
2022/03/03 03:27:12;;;;;;;;;;;;;;;;;;5092535;28;941;-72
2022/03/03 03:29:39;;;;;;;;;;;;;;;;;;5092074;28;1493;-72
2022/03/03 03:32:06;;;;;;;;;;;;;;;;;;5092066;28;1921;-73
2022/03/03 03:34:32;;;;;;;;;;;;;;;;;;5089758;28;1760;-72
2022/03/03 03:36:58;;;;;;;;;;;;;;;;;;5087173;28;2389;-72
2022/03/03 03:39:24;;;;;;;;;;;;;;;;;;5091347;28;1498;-72
2022/03/03 03:41:51;;;;;;;;;;;;;;;;;;5091724;28;1215;-72
2022/03/03 03:44:17;;;;;;;;;;;;;;;;;;5092291;28;825;-72
2022/03/03 03:46:44;;;;;;;;;;;;;;;;;;5092094;28;1149;-72
2022/03/03 03:49:10;;;;;;;;;;;;;;;;;;5091895;28;937;-73
2022/03/03 03:51:37;;;;;;;;;;;;;;;;;;5091400;28;1973;-73
2022/03/03 03:54:03;;;;;;;;;;;;;;;;;;5091985;28;956;-73
2022/03/03 03:56:29;;;;;;;;;;;;;;;;;;5091612;28;1083;-73
2022/03/03 03:58:55;;;;;;;;;;;;;;;;;;5091405;28;1078;-72
2022/03/03 04:01:21;;;;;;;;;;;;;;;;;;5091257;28;1310;-73
2022/03/03 04:03:49;;;;;;;;;;;;;;;;;;5090702;28;1145;-73
2022/03/03 04:06:16;;;;;;;;;;;;;;;;;;5091781;28;1003;-73
2022/03/03 04:08:42;;;;;;;;;;;;;;;;;;5073600;28;905;-73
2022/03/03 04:11:08;;;;;;;;;;;;;;;;;;5093535;28;1910;-72
2022/03/03 04:13:34;;;;;;;;;;;;;;;;;;5091450;28;850;-73
2022/03/03 04:16:00;;;;;;;;;;;;;;;;;;5091569;28;1146;-73
2022/03/03 04:18:27;;;;;;;;;;;;;;;;;;5091606;28;856;-72
2022/03/03 04:20:54;;;;;;;;;;;;;;;;;;5091125;28;1325;-72
2022/03/03 04:23:20;;;;;;;;;;;;;;;;;;5091251;28;728;-73
2022/03/03 04:25:47;;;;;;;;;;;;;;;;;;5091458;28;1094;-73
2022/03/03 04:28:13;;;;;;;;;;;;;;;;;;5091264;28;878;-73
2022/03/03 04:30:39;;;;;;;;;;;;;;;;;;5091078;28;1399;-73
2022/03/03 04:33:05;;;;;;;;;;;;;;;;;;5091882;28;1905;-73
2022/03/03 04:35:32;;;;;;;;;;;;;;;;;;5091146;28;774;-72
2022/03/03 04:37:59;;;;;;;;;;;;;;;;;;5091205;28;1141;-73
2022/03/03 04:40:25;;;;;;;;;;;;;;;;;;5090408;28;1367;-72
2022/03/03 04:42:52;;;;;;;;;;;;;;;;;;5091149;28;766;-72
2022/03/03 04:45:18;;;;;;;;;;;;;;;;;;5091005;28;1086;-72
2022/03/03 04:47:44;;;;;;;;;;;;;;;;;;5091275;28;909;-73
2022/03/03 04:50:10;;;;;;;;;;;;;;;;;;5090365;28;1345;-72
2022/03/03 04:52:37;;;;;;;;;;;;;;;;;;5090872;28;1910;-72
2022/03/03 04:55:05;;;;;;;;;;;;;;;;;;5091033;28;1131;-72
2022/03/03 04:57:31;;;;;;;;;;;;;;;;;;5090813;28;1137;-72
2022/03/03 04:59:57;;;;;;;;;;;;;;;;;;5090355;28;1337;-73
2022/03/03 05:02:23;;;;;;;;;;;;;;;;;;5090833;28;1102;-73
2022/03/03 05:04:50;;;;;;;;;;;;;;;;;;5090714;28;983;-73
2022/03/03 05:07:16;;;;;;;;;;;;;;;;;;5090760;28;920;-73
2022/03/03 05:09:42;;;;;;;;;;;;;;;;;;5090146;28;1390;-72
2022/03/03 05:12:10;;;;;;;;;;;;;;;;;;5090468;28;1918;-73
2022/03/03 05:14:36;;;;;;;;;;;;;;;;;;5090311;28;1082;-72
2022/03/03 05:17:03;;;;;;;;;;;;;;;;;;5090635;28;813;-71
2022/03/03 05:19:29;;;;;;;;;;;;;;;;;;5090391;28;1389;-71
2022/03/03 05:21:55;;;;;;;;;;;;;;;;;;5090337;28;1114;-72
2022/03/03 05:24:21;;;;;;;;;;;;;;;;;;5090791;28;789;-74
2022/03/03 05:26:47;;;;;;;;;;;;;;;;;;5090185;28;1070;-73
2022/03/03 05:29:15;;;;;;;;;;;;;;;;;;5090172;28;755;-74
2022/03/03 05:31:42;;;;;;;;;;;;;;;;;;5090111;28;1983;-74
2022/03/03 05:34:08;;;;;;;;;;;;;;;;;;5072307;28;1323;-74
2022/03/03 05:36:34;;;;;;;;;;;;;;;;;;5090104;28;749;-74
2022/03/03 05:39:01;;;;;;;;;;;;;;;;;;5090227;28;1067;-74
2022/03/03 05:41:27;;;;;;;;;;;;;;;;;;5089933;28;1371;-75
2022/03/03 05:43:53;;;;;;;;;;;;;;;;;;5071355;28;1449;-75
2022/03/03 05:46:20;;;;;;;;;;;;;;;;;;5068150;28;1869;-73
2022/03/03 05:48:47;;;;;;;;;;;;;;;;;;5090181;28;991;-73
2022/03/03 05:51:13;;;;;;;;;;;;;;;;;;5089825;28;1918;-74
2022/03/03 05:53:39;;;;;;;;;;;;;;;;;;5090172;28;1095;-74
2022/03/03 05:56:07;;;;;;;;;;;;;;;;;;5090285;28;1092;-74
2022/03/03 05:58:36;;;;;;;;;;;;;;;;;;5067807;28;1484;-73
2022/03/03 06:01:12;;;;;;;;;;;;;;;;;;5071738;28;1533;-71
2022/03/03 06:03:39;;;;;;;;;;;;;;;;;;5050032;28;1537;-73
2022/03/03 06:06:08;;;;;;;;;;;;;;;;;;5067906;28;1484;-71
2022/03/03 06:08:41;;;;;;;;;;;;;;;;;;5067591;28;1979;-72
2022/03/03 06:11:07;;;;;;;;;;;;;;;;;;5067232;28;1297;-72
2022/03/03 06:13:35;;;;;;;;;;;;;;;;;;5076889;28;1938;-72
2022/03/03 06:16:02;;;;;;;;;;;;;;;;;;5067207;28;1346;-72
2022/03/03 06:18:30;;;;;;;;;;;;;;;;;;5069107;28;1504;-74
2022/03/03 06:20:58;;;;;;;;;;;;;;;;;;5083848;28;2119;-73
2022/03/03 06:23:24;;;;;;;;;;;;;;;;;;5069890;28;1342;-72
2022/03/03 06:25:51;;;;;;;;;;;;;;;;;;5083009;28;1539;-70
2022/03/03 06:28:18;;;;;;;;;;;;;;;;;;5086808;28;981;-71
2022/03/03 06:30:44;;;;;;;;;;;;;;;;;;5081239;28;1395;-73
2022/03/03 06:33:10;;;;;;;;;;;;;;;;;;5093193;28;1914;-73
2022/03/03 06:35:37;;;;;;;;;;;;;;;;;;5093092;28;1480;-73
2022/03/03 06:38:05;;;;;;;;;;;;;;;;;;5087723;28;1134;-73
2022/03/03 06:40:32;;;;;;;;;;;;;;;;;;5084029;28;1563;-74
2022/03/03 06:43:00;;;;;;;;;;;;;;;;;;5097942;28;905;-74
2022/03/03 06:45:27;;;;;;;;;;;;;;;;;;5093873;28;1552;-75
2022/03/03 06:47:53;;;;;;;;;;;;;;;;;;5100387;28;1094;-73
2022/03/03 06:50:20;;;;;;;;;;;;;;;;;;5087808;28;1345;-73
2022/03/03 06:52:46;;;;;;;;;;;;;;;;;;5091053;28;1914;-73
2022/03/03 06:55:13;;;;;;;;;;;;;;;;;;5094428;28;1378;-74
2022/03/03 06:57:40;;;;;;;;;;;;;;;;;;5088817;28;1618;-73
2022/03/03 07:00:06;;;;;;;;;;;;;;;;;;5092460;28;1352;-73
2022/03/03 07:02:33;;;;;;;;;;;;;;;;;;5074165;28;1200;-74
2022/03/03 07:04:59;;;;;;;;;;;;;;;;;;5092422;28;1302;-74
2022/03/03 07:07:25;;;;;;;;;;;;;;;;;;5092776;28;1159;-74
2022/03/03 07:09:52;;;;;;;;;;;;;;;;;;5089181;28;1333;-74
2022/03/03 07:12:19;;;;;;;;;;;;;;;;;;5083565;28;1902;-74
2022/03/03 07:14:45;;;;;;;;;;;;;;;;;;5078356;28;1138;-73
2022/03/03 07:17:13;;;;;;;;;;;;;;;;;;5091340;28;1247;-73
2022/03/03 07:19:44;;;;;;;;;;;;;;;;;;5090773;28;1480;-70
2022/03/03 07:22:12;;;;;;;;;;;;;;;;;;5091716;28;1532;-73
2022/03/03 07:24:40;;;;;;;;;;;;;;;;;;5074239;28;1100;-74
2022/03/03 07:27:08;;;;;;;;;;;;;;;;;;5092001;28;1098;-73
2022/03/03 07:29:36;;;;;;;;;;;;;;;;;;5091303;28;1571;-72
2022/03/03 07:32:05;;;;;;;;;;;;;;;;;;5087522;28;1922;-72
2022/03/03 07:34:32;;;;;;;;;;;;;;;;;;5086766;28;1436;-72
2022/03/03 07:36:59;;;;;;;;;;;;;;;;;;5091086;28;909;-72
2022/03/03 07:39:30;;;;;;;;;;;;;;;;;;5090886;28;1563;-71
2022/03/03 07:41:57;;;;;;;;;;;;;;;;;;5073682;28;996;-73
2022/03/03 07:44:23;;;;;;;;;;;;;;;;;;5086573;28;1539;-72
2022/03/03 07:46:50;;;;;;;;;;;;;;;;;;5091742;28;945;-72
2022/03/03 07:49:17;;;;;;;;;;;;;;;;;;5090909;28;1269;-73
2022/03/03 07:51:43;;;;;;;;;;;;;;;;;;5091266;28;1346;-72
2022/03/03 07:54:09;;;;;;;;;;;;;;;;;;5088802;28;1979;-72
2022/03/03 07:56:38;;;;;;;;;;;;;;;;;;5091292;28;957;-72
2022/03/03 07:59:06;;;;;;;;;;;;;;;;;;5083557;28;1270;-72
2022/03/03 08:01:32;;;;;;;;;;;;;;;;;;5089999;28;1340;-72
2022/03/03 08:04:00;;;;;;;;;;;;;;;;;;5081042;28;1302;-72
2022/03/03 08:06:26;;;;;;;;;;;;;;;;;;5083989;28;1190;-73
2022/03/03 08:08:53;;;;;;;;;;;;;;;;;;5073556;28;1104;-73
2022/03/03 08:11:19;;;;;;;;;;;;;;;;;;5072586;28;1308;-73
2022/03/03 08:13:46;;;;;;;;;;;;;;;;;;5071454;28;1977;-73
2022/03/03 08:16:12;;;;;;;;;;;;;;;;;;5056335;28;1517;-74
2022/03/03 08:18:38;;;;;;;;;;;;;;;;;;5086404;28;975;-73
2022/03/03 08:21:06;;;;;;;;;;;;;;;;;;5068151;28;1418;-72
2022/03/03 08:23:33;;;;;;;;;;;;;;;;;;5089728;28;1472;-74
2022/03/03 08:26:00;;;;;;;;;;;;;;;;;;5091148;28;1082;-74
2022/03/03 08:28:26;;;;;;;;;;;;;;;;;;5090529;28;1492;-75
2022/03/03 08:30:53;;;;;;;;;;;;;;;;;;5063594;28;1437;-74
2022/03/03 08:33:20;;;;;;;;;;;;;;;;;;5088119;28;1985;-73
2022/03/03 08:35:50;;;;;;;;;;;;;;;;;;5072907;28;1310;-73
2022/03/03 08:38:18;;;;;;;;;;;;;;;;;;5089832;28;1230;-73
2022/03/03 08:40:44;;;;;;;;;;;;;;;;;;5062332;28;1587;-74
2022/03/03 08:43:11;;;;;;;;;;;;;;;;;;5078488;28;1134;-73
2022/03/03 08:45:37;;;;;;;;;;;;;;;;;;5090181;28;1390;-73
2022/03/03 08:48:06;;;;;;;;;;;;;;;;;;5077633;28;1568;-73
2022/03/03 08:50:33;;;;;;;;;;;;;;;;;;5084466;28;1318;-73
2022/03/03 08:52:59;;;;;;;;;;;;;;;;;;5077131;28;2029;-74
2022/03/03 08:55:27;;;;;;;;;;;;;;;;;;5089599;28;1357;-73
2022/03/03 08:57:53;;;;;;;;;;;;;;;;;;5087350;28;1568;-73
2022/03/03 09:00:19;;;;;;;;;;;;;;;;;;5089689;28;1342;-72
2022/03/03 09:02:47;;;;;;;;;;;;;;;;;;5072074;28;1334;-72
2022/03/03 09:05:13;;;;;;;;;;;;;;;;;;5072851;28;1274;-73
2022/03/03 09:07:39;;;;;;;;;;;;;;;;;;5090834;28;1059;-74
2022/03/03 09:10:06;;;;;;;;;;;;;;;;;;5080491;28;1442;-73
2022/03/03 09:12:34;;;;;;;;;;;;;;;;;;5090329;28;1902;-73
2022/03/03 09:15:00;;;;;;;;;;;;;;;;;;5090676;28;1081;-75
2022/03/03 09:17:26;;;;;;;;;;;;;;;;;;5083955;28;1516;-74
2022/03/03 09:19:53;;;;;;;;;;;;;;;;;;5079774;28;1524;-74
2022/03/03 09:22:19;;;;;;;;;;;;;;;;;;5071112;28;921;-74
2022/03/03 09:24:45;;;;;;;;;;;;;;;;;;5071412;28;1607;-74
2022/03/03 09:27:11;;;;;;;;;;;;;;;;;;5072050;28;1086;-74
2022/03/03 09:29:39;;;;;;;;;;;;;;;;;;5089365;28;1512;-74
2022/03/03 09:32:06;;;;;;;;;;;;;;;;;;5089954;28;913;-74
2022/03/03 09:34:32;;;;;;;;;;;;;;;;;;5085686;28;2003;-73
2022/03/03 09:36:58;;;;;;;;;;;;;;;;;;5067894;28;1185;-75
2022/03/03 09:39:25;;;;;;;;;;;;;;;;;;5082915;28;1737;-73
2022/03/03 09:41:51;;;;;;;;;;;;;;;;;;5080661;28;1318;-73
2022/03/03 09:44:20;;;;;;;;;;;;;;;;;;5088854;28;1290;-73
2022/03/03 09:46:48;;;;;;;;;;;;;;;;;;5089735;28;1575;-74
2022/03/03 09:49:14;;;;;;;;;;;;;;;;;;5089798;28;894;-76
2022/03/03 09:51:40;;;;;;;;;;;;;;;;;;5088723;28;1357;-74
2022/03/03 09:54:06;;;;;;;;;;;;;;;;;;5087260;28;1985;-75
2022/03/03 09:56:33;;;;;;;;;;;;;;;;;;5089869;28;1334;-75
2022/03/03 09:58:59;;;;;;;;;;;;;;;;;;5090174;28;822;-74
2022/03/03 10:01:27;;;;;;;;;;;;;;;;;;5091110;28;1520;-74
2022/03/03 10:03:54;;;;;;;;;;;;;;;;;;5071545;28;902;-73
2022/03/03 10:06:22;;;;;;;;;;;;;;;;;;5093163;28;1484;-75
2022/03/03 10:08:49;;;;;;;;;;;;;;;;;;5081836;28;1520;-73
2022/03/03 10:11:15;;;;;;;;;;;;;;;;;;5083663;28;1493;-74
2022/03/03 10:13:46;;;;;;;;;;;;;;;;;;5093601;28;1906;-73
2022/03/03 10:16:12;;;;;;;;;;;;;;;;;;5095236;28;1514;-73
2022/03/03 10:18:38;;;;;;;;;;;;;;;;;;5093332;28;1016;-74
2022/03/03 10:21:06;;;;;;;;;;;;;;;;;;5092607;28;1560;-73
2022/03/03 10:23:33;;;;;;;;;;;;;;;;;;5097802;28;1311;-73
2022/03/03 10:26:00;;;;;;;;;;;;;;;;;;5096053;28;1317;-73
2022/03/03 10:28:27;;;;;;;;;;;;;;;;;;5092980;28;1070;-73
2022/03/03 10:30:58;;;;;;;;;;;;;;;;;;5093493;28;1424;-76
2022/03/03 10:33:26;;;;;;;;;;;;;;;;;;5079807;28;1973;-75
2022/03/03 10:35:58;;;;;;;;;;;;;;;;;;5073405;28;826;-75
2022/03/03 10:38:25;;;;;;;;;;;;;;;;;;5074391;28;1497;-73
2022/03/03 10:40:51;;;;;;;;;;;;;;;;;;5081479;28;1583;-75
2022/03/03 10:43:18;;;;;;;;;;;;;;;;;;5083888;28;1512;-73
2022/03/03 10:45:53;;;;;;;;;;;;;;;;;;5054875;28;1508;-73
2022/03/03 10:48:21;;;;;;;;;;;;;;;;;;5079165;28;1571;-73
2022/03/03 10:50:47;;;;;;;;;;;;;;;;;;5092835;28;1320;-72
2022/03/03 10:53:16;;;;;;;;;;;;;;;;;;5092136;28;1906;-72
2022/03/03 10:55:43;;;;;;;;;;;;;;;;;;5081672;28;1519;-73
2022/03/03 10:58:10;;;;;;;;;;;;;;;;;;5082790;28;1329;-74
2022/03/03 11:00:38;;;;;;;;;;;;;;;;;;5073369;28;1427;-73
2022/03/03 11:03:04;;;;;;;;;;;;;;;;;;5088161;28;1500;-71
2022/03/03 11:05:31;;;;;;;;;;;;;;;;;;5075657;28;1355;-72
2022/03/03 11:07:58;;;;;;;;;;;;;;;;;;5062914;28;1310;-73
2022/03/03 11:10:25;;;;;;;;;;;;;;;;;;5092084;28;1239;-72
2022/03/03 11:12:53;;;;;;;;;;;;;;;;;;5091311;28;1921;-73
2022/03/03 11:15:20;;;;;;;;;;;;;;;;;;5092819;28;1078;-74
2022/03/03 11:17:46;;;;;;;;;;;;;;;;;;5091776;28;1548;-74
2022/03/03 11:20:14;;;;;;;;;;;;;;;;;;5091572;28;1347;-73
2022/03/03 11:22:41;;;;;;;;;;;;;;;;;;5092131;28;1647;-73
2022/03/03 11:25:09;;;;;;;;;;;;;;;;;;5092583;28;1109;-72
2022/03/03 11:27:35;;;;;;;;;;;;;;;;;;5091455;28;1556;-74
2022/03/03 11:30:12;;;;;;;;;;;;;;;;;;5091605;28;1431;-72
2022/03/03 11:32:39;;;;;;;;;;;;;;;;;;5091515;28;1562;-72
2022/03/03 11:35:06;;;;;;;;;;;;;;;;;;5087618;28;1978;-74
2022/03/03 11:37:36;;;;;;;;;;;;;;;;;;5090942;28;1353;-74
2022/03/03 11:40:03;;;;;;;;;;;;;;;;;;5091036;28;1415;-73
2022/03/03 11:42:31;;;;;;;;;;;;;;;;;;5091302;28;1504;-74
2022/03/03 11:44:58;;;;;;;;;;;;;;;;;;5092019;28;1079;-74
2022/03/03 11:47:26;;;;;;;;;;;;;;;;;;5091011;28;1505;-73
2022/03/03 11:49:59;;;;;;;;;;;;;;;;;;5087188;28;2049;-73
2022/03/03 11:52:25;;;;;;;;;;;;;;;;;;5087143;28;1330;-74
2022/03/03 11:54:54;;;;;;;;;;;;;;;;;;5091639;28;1914;-73
2022/03/03 11:57:24;;;;;;;;;;;;;;;;;;5091282;28;956;-72
2022/03/03 11:59:51;;;;;;;;;;;;;;;;;;5091252;28;1474;-73
2022/03/03 12:02:17;;;;;;;;;;;;;;;;;;5074760;28;1374;-73
2022/03/03 12:04:45;;;;;;;;;;;;;;;;;;5082579;28;1504;-74
2022/03/03 12:07:26;;;;;;;;;;;;;;;;;;5091095;28;1287;-74
2022/03/03 12:09:52;;;;;;;;;;;;;;;;;;5083430;28;1421;-74
2022/03/03 12:12:19;;;;;;;;;;;;;;;;;;5084267;28;1636;-75
2022/03/03 12:14:51;;;;;;;;;;;;;;;;;;5094281;28;2155;-74
2022/03/03 12:17:36;;;;;;;;;;;;;;;;;;5091605;28;1397;-74
2022/03/03 12:20:21;;;;;;;;;;;;;;;;;;5091319;28;1479;-75
2022/03/03 12:23:00;;;;;;;;;;;;;;;;;;5070320;28;1493;-74
2022/03/03 12:25:45;;;;;;;;;;;;;;;;;;5070699;28;1528;-74
2022/03/03 12:28:15;;;;;;;;;;;;;;;;;;5079843;28;1266;-73
2022/03/03 12:30:44;;;;;;;;;;;;;;;;;;5090943;28;1351;-74
2022/03/03 12:33:13;;;;;;;;;;;;;;;;;;5089620;28;1536;-74
2022/03/03 12:35:39;;;;;;;;;;;;;;;;;;5090889;28;1983;-73
2022/03/03 12:38:07;;;;;;;;;;;;;;;;;;5086806;28;1517;-75
2022/03/03 12:40:35;;;;;;;;;;;;;;;;;;5070281;28;1423;-74
2022/03/03 12:43:02;;;;;;;;;;;;;;;;;;5074530;28;1567;-77
2022/03/03 12:45:30;;;;;;;;;;;;;;;;;;5091550;28;1145;-73
2022/03/03 12:47:56;;;;;;;;;;;;;;;;;;5089171;28;1469;-74
2022/03/03 12:50:25;;;;;;;;;;;;;;;;;;5086885;28;1402;-75
2022/03/03 12:52:56;;;;;;;;;;;;;;;;;;5091194;28;1027;-75
2022/03/03 12:55:27;;;;;;;;;;;;;;;;;;5091054;28;1973;-75
2022/03/03 12:57:55;;;;;;;;;;;;;;;;;;5072997;28;1047;-75
2022/03/03 13:00:21;;;;;;;;;;;;;;;;;;5072341;28;1420;-75
2022/03/03 13:02:48;;;;;;;;;;;;;;;;;;5091320;28;916;-75
2022/03/03 13:05:14;;;;;;;;;;;;;;;;;;5091106;28;806;-76
2022/03/03 13:07:40;;;;;;;;;;;;;;;;;;5090294;28;1354;-77
2022/03/03 13:10:07;;;;;;;;;;;;;;;;;;5090761;28;1323;-75
2022/03/03 13:12:44;;;;;;;;;;;;;;;;;;5090929;28;948;-75
2022/03/03 13:15:11;;;;;;;;;;;;;;;;;;5090984;28;1938;-74
2022/03/03 13:17:37;;;;;;;;;;;;;;;;;;5090589;28;1078;-75
2022/03/03 13:20:04;;;;;;;;;;;;;;;;;;5090351;28;1462;-75
2022/03/03 13:22:30;;;;;;;;;;;;;;;;;;5090789;28;854;-75
2022/03/03 13:25:12;;;;;;;;;;;;;;;;;;5090395;28;1151;-75
2022/03/03 13:27:44;;;;;;;;;;;;;;;;;;5087356;28;1980;-75
2022/03/03 13:30:11;;;;;;;;;;;;;;;;;;5089796;28;1497;-75
2022/03/03 13:32:43;;;;;;;;;;;;;;;;;;5070322;28;1162;-75
2022/03/03 13:35:09;;;;;;;;;;;;;;;;;;5064010;28;1977;-76
2022/03/03 13:37:35;;;;;;;;;;;;;;;;;;5077642;28;1270;-76
2022/03/03 13:40:11;;;;;;;;;;;;;;;;;;5094440;28;1833;-76
2022/03/03 13:42:39;;;;;;;;;;;;;;;;;;5092799;28;1270;-76
2022/03/03 13:45:07;;;;;;;;;;;;;;;;;;5097060;28;1274;-75
2022/03/03 13:47:34;;;;;;;;;;;;;;;;;;5096462;28;1297;-76
2022/03/03 13:50:01;;;;;;;;;;;;;;;;;;5069879;28;1506;-76
2022/03/03 13:52:30;;;;;;;;;;;;;;;;;;5097364;28;1085;-77
2022/03/03 13:54:58;;;;;;;;;;;;;;;;;;5099966;28;1906;-75
2022/03/03 13:57:38;;;;;;;;;;;;;;;;;;5100072;28;1159;-75
2022/03/03 14:00:07;;;;;;;;;;;;;;;;;;5096166;28;1377;-75
2022/03/03 14:02:33;;;;;;;;;;;;;;;;;;5078946;28;1244;-75
2022/03/03 14:05:00;;;;;;;;;;;;;;;;;;5079169;28;1255;-75
2022/03/03 14:07:27;;;;;;;;;;;;;;;;;;5097127;28;1019;-74
2022/03/03 14:09:57;;;;;;;;;;;;;;;;;;5077760;28;1419;-75
2022/03/03 14:12:23;;;;;;;;;;;;;;;;;;5081557;28;1432;-75
2022/03/03 14:14:50;;;;;;;;;;;;;;;;;;5078219;28;1973;-74
2022/03/03 14:17:17;;;;;;;;;;;;;;;;;;5081206;28;1480;-74
2022/03/03 14:19:43;;;;;;;;;;;;;;;;;;5078506;28;1439;-76
2022/03/03 14:22:10;;;;;;;;;;;;;;;;;;5098653;28;1580;-76
2022/03/03 14:24:38;;;;;;;;;;;;;;;;;;5096284;28;1020;-74
2022/03/03 14:27:04;;;;;;;;;;;;;;;;;;5073779;28;1650;-74
2022/03/03 14:29:30;;;;;;;;;;;;;;;;;;5093682;28;1500;-75
2022/03/03 14:31:57;;;;;;;;;;;;;;;;;;5092989;28;1274;-75
2022/03/03 14:34:24;;;;;;;;;;;;;;;;;;5093735;28;1910;-75
2022/03/03 14:36:50;;;;;;;;;;;;;;;;;;5093117;28;1413;-72
2022/03/03 14:39:17;;;;;;;;;;;;;;;;;;5094279;28;789;-75
2022/03/03 14:41:43;;;;;;;;;;;;;;;;;;5094032;28;1317;-73
2022/03/03 14:44:10;;;;;;;;;;;;;;;;;;5075801;28;1567;-74
2022/03/03 14:46:36;;;;;;;;;;;;;;;;;;5092161;28;1086;-73
2022/03/03 14:49:03;;;;;;;;;;;;;;;;;;5072846;28;1461;-74
2022/03/03 14:51:30;;;;;;;;;;;;;;;;;;5088535;28;1424;-74
2022/03/03 14:53:57;;;;;;;;;;;;;;;;;;5090823;28;1469;-74
2022/03/03 14:56:23;;;;;;;;;;;;;;;;;;5090571;28;1922;-73
2022/03/03 14:58:49;;;;;;;;;;;;;;;;;;5090137;28;1237;-74
2022/03/03 15:01:15;;;;;;;;;;;;;;;;;;5090822;28;1387;-75
2022/03/03 15:03:41;;;;;;;;;;;;;;;;;;5077015;28;1673;-74
2022/03/03 15:06:08;;;;;;;;;;;;;;;;;;5072571;28;727;-75
2022/03/03 15:08:35;;;;;;;;;;;;;;;;;;5072757;28;803;-75
2022/03/03 15:11:01;;;;;;;;;;;;;;;;;;5072349;28;1365;-76
2022/03/03 15:13:28;;;;;;;;;;;;;;;;;;5072881;28;933;-75
2022/03/03 15:15:55;;;;;;;;;;;;;;;;;;5072751;28;1971;-76
2022/03/03 15:18:21;;;;;;;;;;;;;;;;;;5072509;28;849;-76
2022/03/03 15:20:48;;;;;;;;;;;;;;;;;;5054529;28;1420;-76
2022/03/03 15:23:15;;;;;;;;;;;;;;;;;;5054792;28;1857;-76
2022/03/03 15:25:42;;;;;;;;;;;;;;;;;;5072763;28;1103;-76
2022/03/03 15:28:10;;;;;;;;;;;;;;;;;;5054636;28;1000;-75
2022/03/03 15:30:36;;;;;;;;;;;;;;;;;;5072060;28;1337;-75
2022/03/03 15:33:02;;;;;;;;;;;;;;;;;;5072549;28;1070;-76
2022/03/03 15:38:12;;;;;;;;;;;;;;;;;;5073417;28;1504;-76
2022/03/03 15:40:39;;;;;;;;;;;;;;;;;;5070164;28;1827;-75
2022/03/03 15:43:06;;;;;;;;;;;;;;;;;;5065664;28;1818;-75
2022/03/03 15:45:33;;;;;;;;;;;;;;;;;;5071951;28;1363;-75
2022/03/03 15:47:59;;;;;;;;;;;;;;;;;;5071144;28;1596;-76
2022/03/03 15:50:25;;;;;;;;;;;;;;;;;;5088112;28;1473;-74
2022/03/03 15:52:51;;;;;;;;;;;;;;;;;;5071481;28;1461;-75
2022/03/03 15:55:19;;;;;;;;;;;;;;;;;;5069518;28;1914;-76
2022/03/03 15:57:48;;;;;;;;;;;;;;;;;;5090518;28;1149;-73
2022/03/03 16:00:16;;;;;;;;;;;;;;;;;;5070963;28;1543;-74
2022/03/03 16:02:42;;;;;;;;;;;;;;;;;;5090349;28;1450;-73
2022/03/03 16:05:08;;;;;;;;;;;;;;;;;;5070473;28;1560;-74
2022/03/03 16:07:35;;;;;;;;;;;;;;;;;;5069799;28;1039;-72
2022/03/03 16:10:01;;;;;;;;;;;;;;;;;;5069179;28;1476;-77
2022/03/03 16:12:27;;;;;;;;;;;;;;;;;;5089917;28;785;-76
2022/03/03 16:14:54;;;;;;;;;;;;;;;;;;5072690;28;1973;-76
2022/03/03 16:17:26;;;;;;;;;;;;;;;;;;5050133;28;1100;-75
2022/03/03 16:19:52;;;;;;;;;;;;;;;;;;5083143;28;1516;-74
2022/03/03 16:22:18;;;;;;;;;;;;;;;;;;5053698;28;1802;-75
2022/03/03 16:24:46;;;;;;;;;;;;;;;;;;5069352;28;782;-75
2022/03/03 16:27:13;;;;;;;;;;;;;;;;;;5063150;28;1608;-74
2022/03/03 16:29:39;;;;;;;;;;;;;;;;;;5089808;28;1295;-74
2022/03/03 16:32:11;;;;;;;;;;;;;;;;;;5091176;28;1359;-74
2022/03/03 16:34:39;;;;;;;;;;;;;;;;;;5089549;28;1914;-74
2022/03/03 16:37:06;;;;;;;;;;;;;;;;;;5088466;28;1468;-74
2022/03/03 16:39:32;;;;;;;;;;;;;;;;;;5088943;28;1418;-75
2022/03/03 16:41:58;;;;;;;;;;;;;;;;;;5079061;28;1508;-74
2022/03/03 16:44:25;;;;;;;;;;;;;;;;;;5071899;28;1472;-74
2022/03/03 16:46:52;;;;;;;;;;;;;;;;;;5070847;28;1263;-74
2022/03/03 16:49:19;;;;;;;;;;;;;;;;;;5068980;28;1460;-75
2022/03/03 16:51:46;;;;;;;;;;;;;;;;;;5082041;28;1465;-74
2022/03/03 16:54:13;;;;;;;;;;;;;;;;;;5070479;28;1382;-74
2022/03/03 16:56:39;;;;;;;;;;;;;;;;;;5070471;28;1914;-74
2022/03/03 16:59:06;;;;;;;;;;;;;;;;;;5089182;28;743;-74
2022/03/03 17:01:33;;;;;;;;;;;;;;;;;;5083462;28;1533;-74
2022/03/03 17:04:00;;;;;;;;;;;;;;;;;;5068749;28;841;-75
2022/03/03 17:06:26;;;;;;;;;;;;;;;;;;5071634;28;1472;-75
2022/03/03 17:08:54;;;;;;;;;;;;;;;;;;5088554;28;1059;-75